Terminal Aerodrome Forecast
Issued by NWS

Home | Current Version | Previous Version | Graphics & Text | Print | Product List | Glossary On
Versions: 1 2 3 4 5 6 7 8 9 10 11 12 13 14 15 16 17 18 19 20 21 22 23 24 25 26
802
FTUS43 KBIS 190526
TAFJMS
TAF
KJMS 190526Z 1906/2006 19008KT P6SM FEW200
      TEMPO 1909/1913 3SM BR
     FM200400 17009KT 3SM BR BKN030 OVC060=

USA.gov is the U.S. government's official web portal to all federal, state and local government web resources and services.